createdAt,value
2023-04-11T00:01:50.065Z,95.78
2023-04-11T00:03:53.161Z,95.75
2023-04-11T00:05:54.760Z,95.85
2023-04-11T00:07:56.234Z,95.84
2023-04-11T00:09:57.751Z,96.57
2023-04-11T00:11:59.302Z,95.64
2023-04-11T00:14:00.755Z,95.91
2023-04-11T00:16:03.399Z,95.88
2023-04-11T00:18:06.646Z,96.25
2023-04-11T00:20:10.887Z,96.07
2023-04-11T00:22:13.820Z,95.76
2023-04-11T00:24:15.517Z,95.76
2023-04-11T00:26:17.053Z,96.26
2023-04-11T00:28:18.492Z,96.10
2023-04-11T00:30:19.976Z,95.76
2023-04-11T00:32:21.642Z,95.71
2023-04-11T00:34:23.081Z,95.40
2023-04-11T00:36:24.821Z,95.18
2023-04-11T00:38:26.545Z,95.52
2023-04-11T00:40:28.002Z,94.83
2023-04-11T00:42:29.470Z,95.32
2023-04-11T00:44:31.141Z,95.22
2023-04-11T00:46:33.663Z,95.51
2023-04-11T00:48:35.932Z,94.70
2023-04-11T00:50:41.231Z,95.45
2023-04-11T00:52:46.213Z,95.27
2023-04-11T00:54:48.259Z,95.35
2023-04-11T00:56:51.126Z,96.01
2023-04-11T00:58:53.217Z,95.00
2023-04-11T01:00:55.211Z,94.86
2023-04-11T01:02:56.818Z,95.35
2023-04-11T01:05:00.692Z,94.97
2023-04-11T01:07:06.312Z,95.04
2023-04-11T01:09:07.981Z,94.83
2023-04-11T01:11:10.994Z,94.76
2023-04-11T01:13:12.994Z,94.98
2023-04-11T01:15:15.003Z,95.25
2023-04-11T01:17:16.692Z,95.45
2023-04-11T01:19:23.489Z,94.95
2023-04-11T01:21:27.093Z,94.77
2023-04-11T01:23:28.828Z,94.50
2023-04-11T01:25:30.436Z,94.74
2023-04-11T01:27:34.037Z,95.12
2023-04-11T01:29:35.607Z,91.58
2023-04-11T01:31:37.103Z,90.75
2023-04-11T01:33:38.728Z,91.59
2023-04-11T01:35:40.572Z,91.59
2023-04-11T01:37:42.145Z,91.81
2023-04-11T01:39:43.626Z,92.87
2023-04-11T01:41:46.043Z,93.44
2023-04-11T01:43:47.855Z,93.27
2023-04-11T01:45:49.316Z,93.92
2023-04-11T01:47:52.009Z,94.18
2023-04-11T01:49:53.729Z,94.34
2023-04-11T01:51:55.804Z,94.40
2023-04-11T01:53:57.310Z,94.59
2023-04-11T01:55:58.961Z,94.77
2023-04-11T01:58:00.557Z,94.82
2023-04-11T02:00:02.101Z,94.71
2023-04-11T02:02:03.833Z,94.95
2023-04-11T02:04:05.652Z,94.84
2023-04-11T02:06:07.383Z,94.72
2023-04-11T02:08:08.904Z,94.89
2023-04-11T02:10:11.138Z,95.75
2023-04-11T02:12:12.642Z,95.79
2023-04-11T02:14:14.463Z,95.92
2023-04-11T02:16:17.997Z,95.63
2023-04-11T02:18:19.816Z,95.83
2023-04-11T02:20:24.232Z,95.56
2023-04-11T02:22:25.948Z,95.94
2023-04-11T02:24:30.501Z,96.17
2023-04-11T02:26:32.010Z,95.91
2023-04-11T02:28:33.533Z,96.54
2023-04-11T02:30:35.019Z,96.22
2023-04-11T02:32:40.416Z,96.62
2023-04-11T02:34:42.671Z,96.28
2023-04-11T02:36:45.790Z,96.77
2023-04-11T02:38:47.302Z,97.13
2023-04-11T02:40:48.804Z,96.71
2023-04-11T02:42:50.351Z,97.16
2023-04-11T02:44:55.505Z,97.00
2023-04-11T02:46:59.208Z,97.10
2023-04-11T02:49:00.676Z,97.00
2023-04-11T02:51:02.211Z,96.83
2023-04-11T02:53:03.658Z,97.62
2023-04-11T02:55:06.178Z,97.01
2023-04-11T02:57:07.692Z,97.56
2023-04-11T02:59:09.240Z,97.34
2023-04-11T03:01:12.008Z,97.44
2023-04-11T03:03:14.622Z,97.81
2023-04-11T03:05:16.292Z,97.70
2023-04-11T03:07:17.736Z,97.55
2023-04-11T03:09:19.955Z,97.57
2023-04-11T03:11:21.857Z,97.43
2023-04-11T03:13:23.365Z,97.45
2023-04-11T03:15:24.849Z,97.01
2023-04-11T03:17:26.340Z,97.48
2023-04-11T03:19:28.377Z,97.79
2023-04-11T03:21:31.544Z,97.27
2023-04-11T03:23:33.074Z,97.79
2023-04-11T03:25:34.561Z,97.91
2023-04-11T03:27:36.156Z,98.14
2023-04-11T03:29:37.658Z,97.68
2023-04-11T03:31:39.177Z,97.99
2023-04-11T03:33:40.779Z,97.54
2023-04-11T03:35:42.254Z,98.32
2023-04-11T03:37:43.749Z,97.76
2023-04-11T03:39:45.245Z,98.04
2023-04-11T03:41:46.750Z,98.10
2023-04-11T03:43:48.276Z,98.22
2023-04-11T03:45:51.624Z,98.38
2023-04-11T03:47:53.156Z,98.23
2023-04-11T03:49:54.651Z,98.16
2023-04-11T03:51:56.224Z,98.52
2023-04-11T03:53:57.809Z,99.08
2023-04-11T03:55:59.290Z,99.34
2023-04-11T03:58:00.937Z,98.56
2023-04-11T04:00:05.384Z,98.66
2023-04-11T04:02:07.047Z,98.38
2023-04-11T04:04:08.838Z,98.52
2023-04-11T04:06:10.796Z,98.66
2023-04-11T04:08:13.605Z,98.92
2023-04-11T04:10:15.381Z,98.65
2023-04-11T04:12:19.783Z,98.66
2023-04-11T04:14:21.278Z,98.86
2023-04-11T04:16:22.869Z,99.11
2023-04-11T04:18:24.434Z,98.66
2023-04-11T04:20:25.990Z,98.36
2023-04-11T04:22:29.749Z,98.48
2023-04-11T04:24:31.952Z,98.27
2023-04-11T04:26:33.486Z,97.92
2023-04-11T04:28:34.959Z,98.29
2023-04-11T04:30:38.180Z,97.81
2023-04-11T04:32:41.189Z,98.00
2023-04-11T04:34:49.240Z,97.74
2023-04-11T04:36:50.787Z,97.35
2023-04-11T04:38:52.525Z,98.39
2023-04-11T04:40:54.823Z,97.16
2023-04-11T04:42:58.992Z,97.54
2023-04-11T04:45:00.829Z,97.46
2023-04-11T04:47:02.290Z,97.75
2023-04-11T04:49:05.861Z,97.45
2023-04-11T04:51:07.812Z,97.31
2023-04-11T04:53:09.391Z,97.73
2023-04-11T04:55:11.340Z,97.98
2023-04-11T04:57:12.833Z,96.78
2023-04-11T04:59:16.128Z,96.87
2023-04-11T05:01:17.698Z,96.92
2023-04-11T05:03:20.931Z,96.16
2023-04-11T05:05:22.560Z,96.43
2023-04-11T05:07:24.072Z,96.53
2023-04-11T05:09:25.970Z,96.67
2023-04-11T05:11:28.669Z,96.77
2023-04-11T05:13:34.012Z,97.22
2023-04-11T05:15:35.494Z,97.48
2023-04-11T05:17:37.346Z,97.30
2023-04-11T05:19:38.834Z,97.42
2023-04-11T05:21:40.555Z,97.31
2023-04-11T05:23:42.066Z,98.18
2023-04-11T05:25:43.532Z,97.99
2023-04-11T05:27:45.029Z,98.10
2023-04-11T05:29:46.513Z,98.19
2023-04-11T05:31:47.993Z,98.36
2023-04-11T05:33:49.505Z,98.94
2023-04-11T05:35:51.882Z,99.18
2023-04-11T05:37:53.471Z,99.02
2023-04-11T05:39:56.352Z,99.23
2023-04-11T05:41:58.088Z,99.59
2023-04-11T05:43:59.641Z,99.33
2023-04-11T05:46:01.198Z,99.83
2023-04-11T05:48:04.142Z,99.43
2023-04-11T05:50:07.297Z,99.85
2023-04-11T05:52:08.875Z,99.59
2023-04-11T05:54:10.589Z,99.66
2023-04-11T05:56:12.932Z,99.68
2023-04-11T05:58:14.619Z,99.71
2023-04-11T06:00:17.178Z,100.00
2023-04-11T06:02:18.964Z,100.00
2023-04-11T06:04:21.069Z,100.00
2023-04-11T06:06:23.468Z,100.00
2023-04-11T06:08:24.985Z,100.00
2023-04-11T06:10:27.019Z,100.00
2023-04-11T06:12:28.711Z,100.00
2023-04-11T06:14:30.349Z,100.00
2023-04-11T06:16:33.511Z,100.00
2023-04-11T06:18:34.997Z,100.00
2023-04-11T06:20:36.499Z,100.00
2023-04-11T06:22:40.026Z,100.00
2023-04-11T06:24:42.742Z,100.00
2023-04-11T06:26:44.744Z,100.00
2023-04-11T06:28:46.223Z,100.00
2023-04-11T06:30:47.709Z,100.00
2023-04-11T06:32:49.266Z,100.00
2023-04-11T06:34:51.316Z,100.00
2023-04-11T06:36:52.816Z,100.00
2023-04-11T06:38:54.353Z,100.00
2023-04-11T06:40:56.457Z,100.00
2023-04-11T06:43:00.147Z,100.00
2023-04-11T06:45:01.933Z,100.00
2023-04-11T06:47:04.046Z,100.00
2023-04-11T06:49:07.279Z,100.00
2023-04-11T06:51:10.402Z,100.00
2023-04-11T06:53:11.913Z,100.00
2023-04-11T06:55:15.474Z,100.00
2023-04-11T06:57:17.971Z,100.00
2023-04-11T06:59:20.429Z,100.00
2023-04-11T07:01:25.512Z,99.67
2023-04-11T07:03:27.570Z,99.80
2023-04-11T07:05:29.157Z,99.53
2023-04-11T07:07:31.386Z,98.65
2023-04-11T07:09:32.916Z,98.25
2023-04-11T07:11:34.445Z,97.30
2023-04-11T07:13:35.938Z,97.03
2023-04-11T07:15:37.427Z,96.49
2023-04-11T07:17:38.925Z,96.34
2023-04-11T07:19:40.710Z,96.24
2023-04-11T07:21:42.887Z,95.48
2023-04-11T07:23:44.762Z,94.66
2023-04-11T07:25:46.227Z,94.65
2023-04-11T07:27:49.212Z,94.83
2023-04-11T07:29:50.692Z,94.54
2023-04-11T07:31:53.159Z,93.39
2023-04-11T07:33:55.032Z,91.94
2023-04-11T07:35:56.793Z,91.26
2023-04-11T07:37:58.352Z,92.13
2023-04-11T07:39:59.921Z,91.66
2023-04-11T07:42:01.905Z,91.23
2023-04-11T07:44:06.539Z,91.13
2023-04-11T07:46:08.069Z,90.63
2023-04-11T07:48:09.568Z,90.40
2023-04-11T07:50:11.351Z,91.18
2023-04-11T07:52:14.156Z,90.85
2023-04-11T07:54:16.683Z,90.43
2023-04-11T07:56:18.147Z,89.56
2023-04-11T07:58:19.764Z,88.47
2023-04-11T08:00:22.874Z,88.06
2023-04-11T08:02:24.661Z,88.32
2023-04-11T08:04:26.647Z,88.75
2023-04-11T08:06:29.131Z,89.06
2023-04-11T08:08:30.769Z,88.69
2023-04-11T08:10:32.858Z,89.04
2023-04-11T08:12:34.419Z,89.07
2023-04-11T08:14:36.657Z,87.63
2023-04-11T08:16:38.303Z,86.99
2023-04-11T08:18:42.448Z,86.28
2023-04-11T08:20:44.168Z,86.48
2023-04-11T08:22:46.768Z,86.85
2023-04-11T08:24:48.302Z,85.77
2023-04-11T08:26:49.813Z,84.10
2023-04-11T08:28:51.355Z,84.05
2023-04-11T08:30:55.301Z,84.67
2023-04-11T08:32:56.876Z,83.78
2023-04-11T08:34:58.421Z,82.74
2023-04-11T08:36:59.961Z,82.12
2023-04-11T08:39:01.448Z,81.92
2023-04-11T08:41:03.049Z,81.95
2023-04-11T08:43:10.125Z,79.58
2023-04-11T08:45:12.247Z,79.06
2023-04-11T08:47:15.975Z,78.08
2023-04-11T08:49:17.712Z,79.66
2023-04-11T08:51:23.775Z,79.24
2023-04-11T08:53:27.006Z,79.72
2023-04-11T08:55:28.832Z,79.97
2023-04-11T08:57:34.898Z,79.63
2023-04-11T08:59:36.510Z,79.17
2023-04-11T09:01:40.745Z,79.65
2023-04-11T09:03:52.165Z,79.30
2023-04-11T09:05:54.445Z,78.62
2023-04-11T09:07:57.328Z,78.00
2023-04-11T09:10:18.317Z,77.88
2023-04-11T09:12:25.791Z,77.79
2023-04-11T09:14:28.600Z,77.10
2023-04-11T09:16:30.168Z,76.41
2023-04-11T09:18:33.400Z,74.50
2023-04-11T09:20:34.952Z,74.33
2023-04-11T09:22:36.577Z,74.78
2023-04-11T09:24:38.261Z,75.34
2023-04-11T09:26:39.720Z,75.64
2023-04-11T09:28:53.721Z,75.99
2023-04-11T09:30:56.422Z,75.47
2023-04-11T09:32:58.699Z,76.98
2023-04-11T09:35:15.741Z,77.24
2023-04-11T09:37:17.358Z,77.08
2023-04-11T09:39:19.815Z,76.96
2023-04-11T09:41:36.368Z,77.13
2023-04-11T09:43:51.978Z,77.42
2023-04-11T09:46:10.570Z,77.39
2023-04-11T09:48:13.026Z,77.60
2023-04-11T09:50:15.638Z,76.88
2023-04-11T09:52:18.454Z,77.52
2023-04-11T09:54:23.030Z,76.36
2023-04-11T09:56:26.576Z,75.67
2023-04-11T09:58:31.604Z,75.13
2023-04-11T10:00:33.515Z,74.67
2023-04-11T10:02:35.152Z,77.59
2023-04-11T10:04:38.421Z,79.63
2023-04-11T10:06:57.603Z,81.08
2023-04-11T10:09:12.816Z,83.16
2023-04-11T10:11:14.661Z,84.59
2023-04-11T10:13:38.784Z,86.07
2023-04-11T10:16:09.051Z,87.77
2023-04-11T10:18:12.539Z,88.93
2023-04-11T10:20:39.072Z,89.29
2023-04-11T10:22:40.571Z,88.11
2023-04-11T10:25:20.885Z,86.60
2023-04-11T10:27:47.475Z,83.32
2023-04-11T10:29:51.544Z,79.74
2023-04-11T10:32:12.709Z,79.00
2023-04-11T10:34:14.719Z,80.41
2023-04-11T10:36:16.218Z,80.97
2023-04-11T10:38:48.775Z,80.82
2023-04-11T10:41:19.151Z,82.12
2023-04-11T10:43:21.637Z,82.07
2023-04-11T10:45:26.958Z,82.72
2023-04-11T10:47:29.476Z,82.33
2023-04-11T10:49:34.934Z,80.78
2023-04-11T10:51:36.577Z,77.21
2023-04-11T10:53:38.492Z,77.02
2023-04-11T10:55:48.629Z,75.46
2023-04-11T10:58:09.784Z,75.00
2023-04-11T11:00:14.465Z,73.31
2023-04-11T11:02:16.833Z,73.16
2023-04-11T11:04:18.825Z,69.93
2023-04-11T11:06:21.326Z,68.70
2023-04-11T11:08:38.022Z,67.26
2023-04-11T11:10:41.989Z,63.68
2023-04-11T11:12:54.653Z,64.35
2023-04-11T11:14:56.218Z,63.19
2023-04-11T11:16:57.782Z,66.45
2023-04-11T11:18:59.606Z,61.30
2023-04-11T11:21:01.372Z,58.75
2023-04-11T11:23:05.039Z,55.30
2023-04-11T11:25:09.786Z,55.72
2023-04-11T11:27:22.513Z,55.69
2023-04-11T11:29:50.888Z,57.44
2023-04-11T11:31:53.382Z,56.53
2023-04-11T11:33:58.287Z,57.15
2023-04-11T11:36:07.329Z,56.20
2023-04-11T11:38:09.039Z,54.41
2023-04-11T11:40:14.132Z,56.14
2023-04-11T11:42:15.978Z,59.83
2023-04-11T11:44:30.790Z,64.39
2023-04-11T11:46:35.661Z,69.07
2023-04-11T11:48:37.219Z,70.08
2023-04-11T11:50:38.694Z,72.21
2023-04-11T11:52:43.420Z,69.99
2023-04-11T11:54:46.461Z,72.46
2023-04-11T11:56:52.765Z,71.80
2023-04-11T11:58:54.360Z,69.52
2023-04-11T12:00:56.218Z,66.15
2023-04-11T12:02:59.846Z,60.02
2023-04-11T12:05:05.034Z,59.03
2023-04-11T12:07:11.412Z,60.00
2023-04-11T12:09:13.163Z,57.09
2023-04-11T12:11:15.834Z,58.58
2023-04-11T12:13:23.445Z,56.49
2023-04-11T12:15:25.093Z,56.25
2023-04-11T12:17:33.555Z,56.25
2023-04-11T12:19:36.332Z,56.82
2023-04-11T12:21:37.837Z,57.17
2023-04-11T12:23:39.293Z,58.73
2023-04-11T12:25:41.165Z,59.13
2023-04-11T12:27:44.410Z,59.17
2023-04-11T12:29:46.737Z,63.34
2023-04-11T12:31:48.713Z,64.53
2023-04-11T12:33:50.277Z,67.71
2023-04-11T12:35:51.764Z,67.39
2023-04-11T12:37:53.271Z,68.47
2023-04-11T12:39:54.903Z,68.99
2023-04-11T12:41:56.450Z,70.30
2023-04-11T12:44:01.537Z,71.34
2023-04-11T12:46:03.022Z,67.78
2023-04-11T12:48:04.773Z,69.87
2023-04-11T12:50:07.214Z,71.63
2023-04-11T12:52:09.280Z,73.04
2023-04-11T12:54:10.766Z,74.62
2023-04-11T12:56:12.224Z,76.99
2023-04-11T12:58:13.707Z,80.44
2023-04-11T13:00:16.632Z,82.32
2023-04-11T13:02:22.130Z,83.58
2023-04-11T13:04:23.915Z,85.25
2023-04-11T13:06:26.035Z,85.65
2023-04-11T13:08:28.386Z,83.80
2023-04-11T13:10:29.938Z,83.72
2023-04-11T13:12:31.561Z,84.43
2023-04-11T13:14:33.135Z,85.43
2023-04-11T13:16:34.646Z,85.26
2023-04-11T13:18:36.115Z,85.69
2023-04-11T13:20:37.604Z,85.91
2023-04-11T13:22:41.163Z,85.63
2023-04-11T13:24:42.669Z,84.99
2023-04-11T13:26:45.037Z,85.08
2023-04-11T13:28:46.637Z,84.59
2023-04-11T13:30:48.158Z,85.39
2023-04-11T13:32:49.668Z,85.21
2023-04-11T13:34:51.276Z,85.14
2023-04-11T13:36:52.858Z,84.67
2023-04-11T13:38:56.162Z,84.05
2023-04-11T13:40:57.769Z,84.84
2023-04-11T13:42:59.223Z,85.21
2023-04-11T13:45:00.720Z,83.23
2023-04-11T13:47:03.624Z,82.44
2023-04-11T13:49:06.192Z,82.74
2023-04-11T13:51:08.020Z,81.77
2023-04-11T13:53:09.889Z,81.83
2023-04-11T13:55:11.372Z,79.58
2023-04-11T13:57:12.906Z,80.36
2023-04-11T13:59:14.370Z,78.88
2023-04-11T14:01:16.114Z,78.11
2023-04-11T14:03:17.951Z,76.04
2023-04-11T14:05:19.594Z,74.48
2023-04-11T14:07:21.127Z,74.28
2023-04-11T14:09:22.638Z,73.13
2023-04-11T14:11:24.131Z,73.63
2023-04-11T14:13:25.913Z,74.08
2023-04-11T14:15:27.477Z,72.17
2023-04-11T14:17:29.856Z,69.23
2023-04-11T14:19:31.425Z,69.80
2023-04-11T14:21:32.959Z,68.84
2023-04-11T14:23:34.559Z,67.50
2023-04-11T14:25:36.203Z,66.57
2023-04-11T14:27:40.527Z,65.85
2023-04-11T14:29:42.274Z,65.66
2023-04-11T14:31:44.073Z,64.56
2023-04-11T14:33:45.757Z,64.48
2023-04-11T14:35:47.365Z,65.13
2023-04-11T14:37:49.586Z,64.27
2023-04-11T14:39:51.174Z,64.85
2023-04-11T14:41:52.662Z,65.82
2023-04-11T14:43:54.199Z,66.03
2023-04-11T14:45:57.569Z,66.39
2023-04-11T14:47:59.255Z,66.41
2023-04-11T14:50:00.978Z,65.49
2023-04-11T14:52:02.940Z,67.04
2023-04-11T14:54:04.579Z,70.38
2023-04-11T14:56:06.687Z,69.24
2023-04-11T14:58:08.250Z,68.30
2023-04-11T15:00:17.926Z,68.34
2023-04-11T15:02:19.576Z,67.43
2023-04-11T15:04:21.287Z,65.67
2023-04-11T15:06:22.854Z,65.79
2023-04-11T15:08:24.377Z,67.03
2023-04-11T15:10:26.347Z,68.49
2023-04-11T15:12:27.893Z,66.70
2023-04-11T15:14:29.582Z,67.51
2023-04-11T15:16:31.424Z,67.92
2023-04-11T15:18:33.122Z,67.61
2023-04-11T15:20:34.620Z,70.01
2023-04-11T15:22:41.279Z,73.25
2023-04-11T15:24:43.104Z,76.45
2023-04-11T15:26:44.757Z,78.60
2023-04-11T15:28:47.259Z,80.96
2023-04-11T15:30:50.977Z,81.62
2023-04-11T15:32:52.502Z,83.22
2023-04-11T15:34:55.375Z,83.14
2023-04-11T15:36:56.881Z,84.15
2023-04-11T15:38:59.836Z,84.84
2023-04-11T15:41:01.545Z,84.09
2023-04-11T15:43:04.342Z,85.24
2023-04-11T15:45:06.735Z,84.11
2023-04-11T15:47:08.429Z,83.95
2023-04-11T15:49:09.950Z,81.66
2023-04-11T15:51:12.944Z,82.03
2023-04-11T15:53:14.723Z,81.80
2023-04-11T15:55:16.596Z,81.24
2023-04-11T15:57:18.593Z,81.14
2023-04-11T15:59:20.113Z,81.17
2023-04-11T16:01:25.728Z,80.57
2023-04-11T16:03:31.776Z,82.04
2023-04-11T16:05:33.905Z,81.16
2023-04-11T16:07:35.598Z,82.36
2023-04-11T16:09:37.159Z,83.11
2023-04-11T16:11:39.953Z,81.94
2023-04-11T16:13:44.025Z,81.19
2023-04-11T16:15:45.669Z,81.34
2023-04-11T16:17:47.556Z,80.61
2023-04-11T16:19:51.561Z,80.55
2023-04-11T16:21:53.634Z,80.74
2023-04-11T16:23:55.399Z,80.88
2023-04-11T16:25:57.361Z,81.83
2023-04-11T16:27:58.913Z,81.92
2023-04-11T16:30:03.125Z,80.60
2023-04-11T16:32:04.958Z,79.61
2023-04-11T16:34:06.723Z,79.42
2023-04-11T16:36:08.580Z,79.17
2023-04-11T16:38:10.102Z,79.78
2023-04-11T16:40:11.968Z,79.66
2023-04-11T16:42:14.206Z,79.87
2023-04-11T16:44:16.388Z,79.79
2023-04-11T16:46:17.931Z,80.75
2023-04-11T16:48:19.436Z,80.26
2023-04-11T16:50:21.295Z,80.91
2023-04-11T16:52:22.792Z,80.75
2023-04-11T16:54:24.272Z,78.88
2023-04-11T16:56:26.908Z,78.64
2023-04-11T16:58:31.128Z,78.37
2023-04-11T17:00:32.619Z,76.63
2023-04-11T17:02:34.216Z,75.94
2023-04-11T17:04:36.231Z,75.81
2023-04-11T17:06:37.907Z,75.88
2023-04-11T17:08:41.250Z,75.71
2023-04-11T17:10:42.850Z,75.16
2023-04-11T17:12:44.411Z,75.58
2023-04-11T17:14:47.565Z,75.02
2023-04-11T17:16:49.080Z,75.87
2023-04-11T17:18:50.563Z,75.92
2023-04-11T17:20:52.640Z,75.82
2023-04-11T17:22:54.120Z,75.83
2023-04-11T17:24:55.763Z,76.46
2023-04-11T17:26:58.034Z,76.72
2023-04-11T17:28:59.990Z,75.95
2023-04-11T17:31:02.218Z,76.58
2023-04-11T17:33:04.223Z,76.77
2023-04-11T17:35:06.720Z,77.39
2023-04-11T17:37:08.318Z,77.34
2023-04-11T17:39:16.985Z,77.17
2023-04-11T17:41:18.441Z,77.62
2023-04-11T17:43:20.033Z,77.53
2023-04-11T17:45:22.384Z,77.64
2023-04-11T17:47:24.016Z,77.43
2023-04-11T17:49:27.242Z,77.59
2023-04-11T17:51:29.361Z,77.72
2023-04-11T17:53:31.133Z,77.79
2023-04-11T17:55:33.121Z,78.11
2023-04-11T17:57:34.873Z,78.10
2023-04-11T17:59:36.376Z,78.96
2023-04-11T18:01:37.926Z,78.27
2023-04-11T18:03:40.243Z,78.44
2023-04-11T18:05:42.001Z,78.56
2023-04-11T18:07:45.050Z,79.02
2023-04-11T18:09:46.521Z,78.91
2023-04-11T18:11:47.996Z,79.23
2023-04-11T18:13:50.445Z,79.86
2023-04-11T18:15:52.433Z,80.37
2023-04-11T18:17:54.430Z,80.38
2023-04-11T18:19:56.716Z,80.01
2023-04-11T18:21:58.318Z,80.88
2023-04-11T18:23:59.771Z,81.17
2023-04-11T18:26:01.223Z,81.17
2023-04-11T18:28:03.335Z,80.49
2023-04-11T18:30:16.420Z,81.13
2023-04-11T18:32:21.149Z,81.40
2023-04-11T18:34:24.708Z,82.30
2023-04-11T18:36:26.406Z,82.65
2023-04-11T18:38:27.987Z,82.87
2023-04-11T18:40:29.858Z,82.32
2023-04-11T18:42:31.574Z,82.78
2023-04-11T18:44:34.149Z,82.33
2023-04-11T18:46:36.261Z,82.97
2023-04-11T18:48:38.046Z,82.95
2023-04-11T18:50:42.905Z,83.32
2023-04-11T18:52:45.622Z,83.00
2023-04-11T18:54:47.807Z,83.01
2023-04-11T18:56:51.483Z,82.80
2023-04-11T18:58:57.940Z,83.06
2023-04-11T19:01:14.639Z,83.93
2023-04-11T19:03:18.994Z,84.02
2023-04-11T19:05:20.996Z,84.18
2023-04-11T19:07:23.090Z,84.12
2023-04-11T19:09:24.621Z,84.13
2023-04-11T19:11:26.200Z,84.46
2023-04-11T19:13:27.745Z,83.83
2023-04-11T19:15:29.635Z,83.91
2023-04-11T19:17:31.234Z,83.29
2023-04-11T19:19:32.780Z,83.22
2023-04-11T19:21:34.309Z,82.89
2023-04-11T19:23:35.891Z,83.23
2023-04-11T19:25:37.430Z,83.18
2023-04-11T19:27:41.494Z,83.32
2023-04-11T19:29:43.330Z,83.35
2023-04-11T19:31:44.834Z,83.53
2023-04-11T19:33:46.612Z,83.10
2023-04-11T19:35:48.173Z,83.12
2023-04-11T19:37:49.742Z,82.72
2023-04-11T19:39:51.328Z,83.09
2023-04-11T19:41:53.108Z,83.16
2023-04-11T19:43:54.630Z,82.81
2023-04-11T19:45:56.275Z,83.45
2023-04-11T19:47:57.864Z,82.79
2023-04-11T19:50:00.860Z,82.99
2023-04-11T19:52:02.779Z,82.91
2023-04-11T19:54:04.318Z,83.11
2023-04-11T19:56:07.910Z,83.18
2023-04-11T19:58:09.723Z,83.40
2023-04-11T20:00:17.062Z,83.56
2023-04-11T20:02:18.716Z,83.14
2023-04-11T20:04:21.393Z,83.34
2023-04-11T20:06:23.331Z,82.93
2023-04-11T20:08:30.449Z,82.94
2023-04-11T20:10:32.203Z,83.26
2023-04-11T20:12:34.531Z,83.21
2023-04-11T20:14:37.283Z,83.00
2023-04-11T20:16:38.772Z,82.79
2023-04-11T20:18:40.385Z,83.08
2023-04-11T20:20:42.163Z,82.42
2023-04-11T20:22:44.810Z,83.16
2023-04-11T20:24:47.127Z,83.06
2023-04-11T20:26:48.650Z,83.24
2023-04-11T20:28:50.430Z,82.86
2023-04-11T20:30:52.091Z,82.80
2023-04-11T20:32:54.216Z,82.88
2023-04-11T20:34:56.403Z,83.06
2023-04-11T20:37:01.024Z,82.99
2023-04-11T20:39:02.526Z,83.13
2023-04-11T20:41:05.718Z,83.32
2023-04-11T20:43:09.585Z,82.59
2023-04-11T20:45:16.840Z,82.93
2023-04-11T20:47:18.314Z,83.38
2023-04-11T20:49:20.644Z,82.60
2023-04-11T20:51:22.319Z,82.85
2023-04-11T20:53:24.396Z,82.86
2023-04-11T20:55:27.312Z,82.73
2023-04-11T20:57:33.603Z,82.21
2023-04-11T20:59:36.941Z,82.92
2023-04-11T21:01:38.731Z,82.87
2023-04-11T21:03:42.527Z,82.32
2023-04-11T21:05:46.516Z,82.57
2023-04-11T21:07:48.058Z,83.05
2023-04-11T21:09:50.244Z,82.35
2023-04-11T21:11:51.705Z,83.01
2023-04-11T21:13:54.678Z,83.05
2023-04-11T21:15:57.381Z,83.06
2023-04-11T21:17:58.973Z,82.94
2023-04-11T21:20:01.844Z,83.57
2023-04-11T21:22:04.175Z,82.78
2023-04-11T21:24:08.291Z,83.19
2023-04-11T21:26:09.779Z,83.41
2023-04-11T21:28:11.273Z,83.16
2023-04-11T21:30:14.064Z,83.14
2023-04-11T21:32:15.665Z,83.33
2023-04-11T21:34:17.325Z,83.30
2023-04-11T21:36:18.798Z,83.72
2023-04-11T21:38:20.375Z,82.90
2023-04-11T21:40:21.993Z,83.20
2023-04-11T21:42:23.636Z,83.78
2023-04-11T21:44:25.200Z,83.06
2023-04-11T21:46:26.731Z,83.29
2023-04-11T21:48:28.273Z,82.98
2023-04-11T21:50:29.749Z,83.71
2023-04-11T21:52:31.254Z,83.13
2023-04-11T21:54:34.016Z,83.50
2023-04-11T21:56:35.634Z,82.88
2023-04-11T21:58:37.274Z,83.06
2023-04-11T22:00:38.959Z,83.25
2023-04-11T22:02:41.267Z,83.43
2023-04-11T22:05:01.235Z,83.44
2023-04-11T22:07:06.261Z,83.55
2023-04-11T22:09:09.930Z,83.30
2023-04-11T22:11:14.177Z,83.03
2023-04-11T22:13:17.344Z,83.21
2023-04-11T22:15:18.927Z,83.20
2023-04-11T22:17:20.408Z,83.03
2023-04-11T22:19:21.898Z,83.50
2023-04-11T22:21:26.506Z,83.22
2023-04-11T22:23:27.980Z,82.94
2023-04-11T22:25:29.524Z,82.88
2023-04-11T22:27:34.610Z,82.96
2023-04-11T22:29:36.227Z,83.09
2023-04-11T22:31:38.942Z,83.34
2023-04-11T22:33:41.329Z,83.24
2023-04-11T22:35:47.716Z,82.93
2023-04-11T22:37:49.839Z,83.22
2023-04-11T22:39:51.492Z,82.80
2023-04-11T22:41:53.487Z,83.07
2023-04-11T22:43:55.290Z,83.38
2023-04-11T22:46:00.321Z,82.99
2023-04-11T22:48:06.086Z,83.07
2023-04-11T22:50:09.441Z,83.19
2023-04-11T22:52:15.369Z,82.90
2023-04-11T22:54:16.844Z,83.29
2023-04-11T22:56:18.418Z,82.91
2023-04-11T22:58:20.313Z,83.02
2023-04-11T23:00:23.990Z,83.18
2023-04-11T23:02:27.468Z,83.75
2023-04-11T23:04:31.640Z,83.14
2023-04-11T23:06:33.440Z,83.00
2023-04-11T23:08:34.966Z,83.15
2023-04-11T23:10:38.857Z,83.14
2023-04-11T23:12:41.448Z,83.28
2023-04-11T23:14:42.906Z,82.96
2023-04-11T23:16:44.948Z,82.72
2023-04-11T23:18:46.486Z,83.07
2023-04-11T23:20:49.381Z,83.16
2023-04-11T23:22:50.870Z,82.98
2023-04-11T23:24:54.956Z,82.65
2023-04-11T23:26:57.040Z,82.53
2023-04-11T23:28:58.594Z,83.37
2023-04-11T23:31:00.538Z,82.90
2023-04-11T23:33:02.831Z,82.50
2023-04-11T23:35:06.114Z,82.37
2023-04-11T23:37:07.841Z,82.42
2023-04-11T23:39:09.875Z,82.55
2023-04-11T23:41:11.373Z,82.60
2023-04-11T23:43:12.893Z,82.55
2023-04-11T23:45:15.126Z,82.85
2023-04-11T23:47:16.619Z,82.61
2023-04-11T23:49:18.116Z,82.41
2023-04-11T23:51:19.637Z,82.38
2023-04-11T23:53:21.291Z,81.93
2023-04-11T23:55:23.529Z,82.34
2023-04-11T23:57:25.130Z,82.49
2023-04-11T23:59:27.108Z,82.59
